Flight Track Log - Related Links

Times and Time Zones

All times are in EDT time to prevent confusion due to time zone crossing. See the N400PU flight status page for this flight to view local times or setup timezone preferences in your user account.

Time Position Orientation Groundspeed Altitude Reporting Facility
EDT Latitude Longitude Course Direction KTS MPH feet Rate Location/Type
Wed 04:02:54 PM 38.1833 -78.4167 303° West 214 246 2,600  Level Potomac TRACON
Wed 04:03:51 PM 38.2386 -78.3914 20° North 242 278 4,100 1,475 Climbing Washington Center
Wed 04:04:52 PM 38.2836 -78.4300 326° Northwest 242 278 5,500 2,319 Climbing Washington Center
Wed 04:05:50 PM 38.3233 -78.5136 301° West 257 296 8,700 1,831 Climbing Washington Center
Wed 04:06:50 PM 38.3628 -78.5997 300° West 269 310 9,100 1,140 Climbing Washington Center
Wed 04:07:51 PM 38.4044 -78.6889 301° West 281 323 11,000 2,115 Climbing Washington Center
Wed 04:08:00 PM 38.4335 -79.0429 303° West  Level Estimated
Wed 04:08:52 PM 38.4500 -78.7836 302° West 301 346 13,400  Level Washington Center
Wed 04:09:52 PM 38.4911 -78.8756 300° West 301 346 15,900 1,815 Climbing Washington Center
Wed 04:10:51 PM 38.5108 -78.9958 282° West 320 368 17,000 750 Climbing Washington Center
Wed 04:11:52 PM 38.5281 -79.1242 280° West 343 395 17,400 1,091 Climbing Washington Center
Wed 04:12:52 PM 38.5742 -79.2486 295° West 375 432 19,200 2,050 Climbing Washington Center
Wed 04:13:52 PM 38.6253 -79.3519 302° West 368 423 21,500 2,339 Climbing Washington Center
Wed 04:14:50 PM 38.6683 -79.4392 302° West 347 399 23,800 2,186 Climbing Washington Center
Wed 04:15:50 PM 38.7153 -79.5403 301° West 333 383 25,800 1,884 Climbing Washington Center
Wed 04:16:51 PM 38.7619 -79.6386 301° West 333 383 27,600 1,918 Climbing Washington Center
Wed 04:17:52 PM 38.8144 -79.7506 301° West 328 377 29,700 1,190 Climbing Washington Center
Wed 04:18:52 PM 38.8647 -79.8603 301° West 333 383 30,000 165 Climbing Washington Center
Wed 04:19:41 PM 38.9056 -79.9453 302° West 383 441 30,000  Level Indianapolis Center
Wed 04:20:43 PM 38.9639 -80.0686 301° West 409 471 30,000  Level Indianapolis Center
Wed 04:21:45 PM 39.0236 -80.1969 301° West 409 471 30,000  Level Indianapolis Center
Wed 04:22:47 PM 39.0819 -80.3233 301° West 411 473 30,000  Level Indianapolis Center
Wed 04:23:49 PM 39.1528 -80.4753 301° West 413 475 30,000 805 Level Indianapolis Center
Wed 04:25:16 PM 39.2333 -80.6497 301° West 403 464 32,000 805 Climbing Indianapolis Center
Wed 04:26:18 PM 39.2892 -80.7697 301° West 393 452 32,000  Level Indianapolis Center
Wed 04:27:20 PM 39.3469 -80.8964 301° West 408 470 32,000  Level Indianapolis Center
Wed 04:28:22 PM 39.4058 -81.0253 301° West 415 478 32,000  Level Indianapolis Center
Wed 04:29:24 PM 39.4781 -81.1864 300° West 432 497 32,000  Level Indianapolis Center
Wed 04:30:26 PM 39.5403 -81.3206 301° West 436 502 32,000  Level Indianapolis Center
Wed 04:31:28 PM 39.6008 -81.4569 300° West 438 504 32,000  Level Indianapolis Center
Wed 04:32:30 PM 39.6625 -81.5950 300° West 442 509 32,000  Level Indianapolis Center
Wed 04:33:32 PM 39.7214 -81.7264 300° West 441 507 32,000  Level Indianapolis Center
Wed 04:34:34 PM 39.7958 -81.8928 300° West 445 512 32,000 -823 Level Indianapolis Center
Wed 04:35:36 PM 39.8572 -82.0322 300° West 446 513 30,300 -1,824 Descending Indianapolis Center
Wed 04:36:39 PM 39.9153 -82.1639 300° West 427 491 28,200 -1,968 Descending Indianapolis Center
Wed 04:37:41 PM 39.9717 -82.2917 300° West 413 475 26,200 -1,935 Descending Indianapolis Center
Wed 04:38:43 PM 40.0269 -82.4206 299° West 409 471 24,200 -2,274 Descending Indianapolis Center
Wed 04:39:45 PM 40.0964 -82.5803 300° West 421 484 21,500 -2,419 Descending Indianapolis Center
Wed 04:40:47 PM 40.1525 -82.7119 299° West 419 482 19,200 -2,177 Descending Indianapolis Center
Wed 04:41:49 PM 40.2075 -82.8381 300° West 406 467 17,000 -1,548 Descending Indianapolis Center
Wed 04:42:51 PM 40.2581 -82.9567 299° West 384 442 16,000 -1,065 Descending Indianapolis Center
Wed 04:43:53 PM 40.3086 -83.0747 299° West 375 432 14,800 -1,551 Descending Indianapolis Center
Wed 04:44:20 PM 40.3369 -83.1450 298° West 371 427 13,700 -2,129 Descending Indianapolis Center
Wed 04:44:55 PM 40.3686 -83.2150 301° West 371 427 12,600 -2,127 Descending Indianapolis Center
Wed 04:45:39 PM 40.4036 -83.3017 298° West 334 384 10,900 -2,032 Descending Indianapolis Center
Wed 04:45:57 PM 40.4139 -83.3236 302° West 348 400 10,500 -1,800 Descending Indianapolis Center
Wed 04:46:59 PM 40.4517 -83.4139 299° West 294 338 8,500 -1,887 Descending Indianapolis Center
Wed 04:48:01 PM 40.4889 -83.5003 300° West 278 320 6,600 -1,694 Descending Indianapolis Center
Wed 04:49:03 PM 40.5242 -83.5850 299° West 270 311 5,000 -1,306 Descending Indianapolis Center
Wed 04:50:05 PM 40.5664 -83.6883 298° West 268 308 3,900 -968 Descending Indianapolis Center
Wed 04:51:07 PM 40.6011 -83.7719 299° West 266 306 3,000 -435 Descending Indianapolis Center
Wed 04:52:09 PM 40.6297 -83.8425 298° West 241 277 3,000  Level Indianapolis Center

Login

Don't have an account? Register now (free) for customized features, flight alerts, and more!